createdAt,value
2023-01-23T00:00:09.185Z,0.95
2023-01-23T00:03:19.851Z,0.94
2023-01-23T00:06:25.129Z,0.92
2023-01-23T00:09:17.758Z,0.91
2023-01-23T00:12:12.239Z,0.88
2023-01-23T00:15:05.966Z,0.82
2023-01-23T00:18:05.259Z,0.79
2023-01-23T00:20:56.605Z,0.75
2023-01-23T00:23:52.813Z,0.72
2023-01-23T00:27:05.738Z,0.70
2023-01-23T00:30:10.972Z,0.69
2023-01-23T00:33:22.796Z,0.67
2023-01-23T00:36:35.954Z,0.66
2023-01-23T00:39:30.187Z,0.63
2023-01-23T00:42:41.677Z,0.62
2023-01-23T00:45:36.497Z,0.62
2023-01-23T00:48:42.178Z,0.59
2023-01-23T00:51:38.321Z,0.58
2023-01-23T00:54:37.055Z,0.60
2023-01-23T00:57:31.522Z,0.60
2023-01-23T01:00:23.407Z,0.60
2023-01-23T01:03:13.808Z,0.61
2023-01-23T01:06:01.844Z,0.61
2023-01-23T01:08:54.511Z,0.63
2023-01-23T01:12:10.408Z,0.66
2023-01-23T01:15:08.939Z,0.70
2023-01-23T01:18:12.189Z,0.73
2023-01-23T01:21:27.502Z,0.70
2023-01-23T01:24:39.184Z,0.67
2023-01-23T01:27:39.325Z,0.65
2023-01-23T01:30:33.111Z,0.67
2023-01-23T01:34:05.160Z,0.66
2023-01-23T01:37:33.343Z,0.70
2023-01-23T01:40:33.052Z,0.75
2023-01-23T01:43:34.868Z,0.79
2023-01-23T01:46:26.671Z,0.83
2023-01-23T01:49:24.398Z,0.86
2023-01-23T01:52:28.277Z,0.84
2023-01-23T01:55:19.970Z,0.82
2023-01-23T01:58:53.153Z,0.77
2023-01-23T02:02:07.307Z,0.73
2023-01-23T02:05:07.882Z,0.74
2023-01-23T02:08:07.518Z,0.75
2023-01-23T02:11:18.599Z,0.75
2023-01-23T02:14:14.239Z,0.77
2023-01-23T02:17:05.846Z,0.81
2023-01-23T02:20:06.351Z,0.84
2023-01-23T02:23:22.964Z,0.84
2023-01-23T02:26:16.895Z,0.86
2023-01-23T02:29:40.021Z,0.93
2023-01-23T02:32:35.658Z,0.91
2023-01-23T02:35:31.131Z,0.88
2023-01-23T02:38:25.936Z,0.84
2023-01-23T02:41:18.739Z,0.81
2023-01-23T02:44:39.412Z,0.81
2023-01-23T02:47:34.407Z,0.80
2023-01-23T02:50:28.232Z,0.83
2023-01-23T02:53:19.930Z,0.82
2023-01-23T02:56:12.071Z,0.84
2023-01-23T02:59:48.137Z,0.84
2023-01-23T03:02:39.312Z,0.81
2023-01-23T03:05:33.178Z,0.80
2023-01-23T03:08:35.255Z,0.79
2023-01-23T03:12:08.700Z,0.77
2023-01-23T03:15:06.531Z,0.77
2023-01-23T03:17:56.377Z,0.77
2023-01-23T03:20:46.629Z,0.79
2023-01-23T03:23:45.629Z,0.81
2023-01-23T03:26:39.038Z,0.79
2023-01-23T03:29:47.694Z,0.77
2023-01-23T03:32:38.662Z,0.77
2023-01-23T03:35:33.720Z,0.78
2023-01-23T03:38:24.433Z,0.79
2023-01-23T03:41:25.752Z,0.78
2023-01-23T03:44:19.874Z,0.75
2023-01-23T03:47:10.044Z,0.73
2023-01-23T03:50:01.356Z,0.75
2023-01-23T03:52:51.133Z,0.75
2023-01-23T03:55:46.769Z,0.76
2023-01-23T03:58:39.708Z,0.78
2023-01-23T04:01:52.325Z,0.81
2023-01-23T04:04:42.335Z,0.83
2023-01-23T04:07:35.805Z,0.83
2023-01-23T04:10:25.714Z,0.81
2023-01-23T04:13:15.354Z,0.79
2023-01-23T04:16:07.330Z,0.77
2023-01-23T04:18:57.569Z,0.77
2023-01-23T04:21:48.663Z,0.78
2023-01-23T04:24:41.325Z,0.73
2023-01-23T04:27:25.073Z,0.70
2023-01-23T04:30:18.377Z,0.69
2023-01-23T04:32:58.224Z,0.70
2023-01-23T04:35:57.212Z,0.71
2023-01-23T04:38:46.723Z,0.69
2023-01-23T04:41:37.750Z,0.65
2023-01-23T04:44:28.666Z,0.64
2023-01-23T04:47:29.460Z,0.67
2023-01-23T04:50:24.721Z,0.72
2023-01-23T04:53:18.444Z,0.72
2023-01-23T04:56:11.290Z,0.69
2023-01-23T04:59:25.346Z,0.64
2023-01-23T05:02:18.062Z,0.61
2023-01-23T05:05:00.103Z,0.58
2023-01-23T05:07:51.869Z,0.56
2023-01-23T05:10:43.440Z,0.56
2023-01-23T05:13:38.603Z,0.57
2023-01-23T05:16:39.144Z,0.57
2023-01-23T05:19:42.601Z,0.58
2023-01-23T05:22:53.931Z,0.55
2023-01-23T05:25:43.554Z,0.55
2023-01-23T05:28:40.889Z,0.57
2023-01-23T05:31:52.140Z,0.55
2023-01-23T05:34:53.024Z,0.52
2023-01-23T05:37:43.637Z,0.52
2023-01-23T05:40:43.958Z,0.53
2023-01-23T05:43:42.059Z,0.54
2023-01-23T05:47:06.080Z,0.53
2023-01-23T05:49:56.207Z,0.53
2023-01-23T05:52:47.295Z,0.52
2023-01-23T05:56:00.817Z,0.50
2023-01-23T05:59:14.838Z,0.51
2023-01-23T06:02:16.734Z,0.50
2023-01-23T06:05:13.172Z,0.49
2023-01-23T06:08:23.007Z,0.48
2023-01-23T06:11:13.406Z,0.52
2023-01-23T06:14:14.712Z,0.53
2023-01-23T06:17:05.068Z,0.53
2023-01-23T06:19:55.286Z,0.53
2023-01-23T06:22:45.664Z,0.52
2023-01-23T06:25:36.268Z,0.52
2023-01-23T06:28:26.586Z,0.51
2023-01-23T06:31:17.192Z,0.51
2023-01-23T06:34:10.666Z,0.49
2023-01-23T06:37:01.663Z,0.50
2023-01-23T06:39:52.319Z,0.51
2023-01-23T06:42:34.465Z,0.51
2023-01-23T06:45:24.070Z,0.53
2023-01-23T06:48:14.397Z,0.56
2023-01-23T06:51:06.249Z,0.60
2023-01-23T06:53:56.313Z,0.63
2023-01-23T06:56:46.464Z,0.66
2023-01-23T06:59:40.790Z,0.65
2023-01-23T07:02:30.853Z,0.64
2023-01-23T07:05:21.297Z,0.64
2023-01-23T07:08:12.424Z,0.65
2023-01-23T07:11:04.438Z,0.66
2023-01-23T07:13:54.100Z,0.65
2023-01-23T07:16:45.615Z,0.65
2023-01-23T07:19:35.654Z,0.64
2023-01-23T07:22:26.147Z,0.66
2023-01-23T07:25:17.023Z,0.69
2023-01-23T07:28:07.596Z,0.73
2023-01-23T07:30:59.444Z,0.75
2023-01-23T07:33:49.854Z,0.77
2023-01-23T07:36:41.316Z,0.79
2023-01-23T07:39:34.400Z,0.78
2023-01-23T07:42:29.866Z,0.77
2023-01-23T07:45:19.183Z,0.75
2023-01-23T07:48:09.302Z,0.73
2023-01-23T07:51:03.645Z,0.74
2023-01-23T07:53:53.179Z,0.74
2023-01-23T07:56:44.413Z,0.73
2023-01-23T07:59:33.928Z,0.76
2023-01-23T08:02:19.748Z,0.80
2023-01-23T08:05:09.921Z,0.84
2023-01-23T08:08:14.264Z,0.86
2023-01-23T08:11:11.204Z,0.90
2023-01-23T08:14:01.562Z,0.94
2023-01-23T08:16:55.058Z,0.94
2023-01-23T08:19:44.337Z,0.94
2023-01-23T08:22:33.513Z,0.92
2023-01-23T08:25:22.683Z,0.90
2023-01-23T08:28:13.077Z,0.89
2023-01-23T08:31:06.555Z,0.89
2023-01-23T08:33:57.687Z,0.90
2023-01-23T08:36:46.929Z,0.94
2023-01-23T08:39:36.481Z,0.94
2023-01-23T08:42:26.313Z,0.96
2023-01-23T08:45:16.138Z,1.00
2023-01-23T08:48:07.432Z,1.06
2023-01-23T08:51:04.026Z,1.08
2023-01-23T08:53:54.363Z,1.07
2023-01-23T08:56:43.360Z,1.05
2023-01-23T08:59:33.039Z,1.04
2023-01-23T09:02:24.555Z,1.06
2023-01-23T09:05:14.514Z,1.08
2023-01-23T09:08:04.793Z,1.15
2023-01-23T09:10:59.330Z,1.21
2023-01-23T09:13:49.275Z,1.24
2023-01-23T09:16:45.596Z,1.24
2023-01-23T09:19:27.156Z,1.23
2023-01-23T09:22:17.213Z,1.20
2023-01-23T09:25:10.183Z,1.19
2023-01-23T09:27:59.318Z,1.16
2023-01-23T09:30:47.580Z,1.16
2023-01-23T09:33:38.233Z,1.18
2023-01-23T09:36:37.526Z,1.22
2023-01-23T09:39:32.185Z,1.28
2023-01-23T09:42:29.380Z,1.30
2023-01-23T09:45:21.525Z,1.32
2023-01-23T09:48:30.738Z,1.32
2023-01-23T09:51:26.479Z,1.30
2023-01-23T09:54:27.934Z,1.27
2023-01-23T09:57:22.369Z,1.27
2023-01-23T10:00:17.927Z,1.27
2023-01-23T10:03:15.139Z,1.26
2023-01-23T10:06:23.088Z,1.27
2023-01-23T10:09:43.968Z,1.30
2023-01-23T10:12:49.298Z,1.33
2023-01-23T10:16:03.982Z,1.36
2023-01-23T10:19:04.970Z,1.37
2023-01-23T10:22:02.232Z,1.37
2023-01-23T10:24:55.850Z,1.39
2023-01-23T10:27:48.169Z,1.40
2023-01-23T10:30:42.168Z,1.45
2023-01-23T10:33:40.861Z,1.47
2023-01-23T10:36:47.624Z,1.50
2023-01-23T10:39:32.021Z,1.51
2023-01-23T10:42:28.237Z,1.51
2023-01-23T10:45:21.541Z,1.48
2023-01-23T10:48:40.368Z,1.48
2023-01-23T10:51:32.971Z,1.46
2023-01-23T10:54:31.670Z,1.44
2023-01-23T10:57:25.970Z,1.46
2023-01-23T11:00:26.408Z,1.49
2023-01-23T11:03:31.991Z,1.52
2023-01-23T11:06:25.775Z,1.54
2023-01-23T11:09:20.810Z,1.57
2023-01-23T11:12:18.329Z,1.61
2023-01-23T11:15:21.005Z,1.62
2023-01-23T11:18:31.548Z,1.57
2023-01-23T11:21:29.017Z,1.53
2023-01-23T11:24:27.726Z,1.53
2023-01-23T11:27:28.107Z,1.51
2023-01-23T11:30:34.463Z,1.49
2023-01-23T11:33:39.787Z,1.50
2023-01-23T11:36:42.748Z,1.50
2023-01-23T11:39:42.446Z,1.50
2023-01-23T11:42:38.354Z,1.50
2023-01-23T11:45:40.148Z,1.47
2023-01-23T11:48:54.253Z,1.46
2023-01-23T11:51:53.310Z,1.48
2023-01-23T11:54:57.510Z,1.53
2023-01-23T11:58:02.675Z,1.54
2023-01-23T12:01:03.908Z,1.58
2023-01-23T12:04:15.127Z,1.63
2023-01-23T12:07:19.946Z,1.67
2023-01-23T12:10:35.239Z,1.72
2023-01-23T12:13:48.484Z,1.73
2023-01-23T12:17:02.476Z,1.69
2023-01-23T12:20:23.858Z,1.65
2023-01-23T12:23:44.910Z,1.67
2023-01-23T12:26:48.005Z,1.65
2023-01-23T12:30:04.789Z,1.64
2023-01-23T12:33:02.558Z,1.67
2023-01-23T12:35:59.974Z,1.68
2023-01-23T12:39:00.382Z,1.63
2023-01-23T12:41:53.928Z,1.56
2023-01-23T12:44:54.134Z,1.53
2023-01-23T12:47:49.125Z,1.54
2023-01-23T12:50:42.986Z,1.55
2023-01-23T12:53:36.876Z,1.57
2023-01-23T12:56:24.887Z,1.61
2023-01-23T12:59:22.331Z,1.60
2023-01-23T13:02:19.911Z,1.56
2023-01-23T13:05:20.741Z,1.55
2023-01-23T13:08:38.154Z,1.51
2023-01-23T13:11:46.037Z,1.52
2023-01-23T13:15:13.056Z,1.50
2023-01-23T13:17:59.999Z,1.50
2023-01-23T13:21:15.142Z,1.49
2023-01-23T13:24:49.267Z,1.48
2023-01-23T13:27:46.967Z,1.47
2023-01-23T13:30:43.061Z,1.46
2023-01-23T13:33:55.243Z,1.44
2023-01-23T13:36:48.897Z,1.43
2023-01-23T13:39:39.046Z,1.40
2023-01-23T13:42:36.208Z,1.41
2023-01-23T13:45:28.461Z,1.39
2023-01-23T16:50:53.475Z,1.38
2023-01-23T16:53:48.661Z,1.42
2023-01-23T16:56:40.726Z,1.43
2023-01-23T16:59:34.664Z,1.45
2023-01-23T17:02:29.693Z,1.44
2023-01-23T17:05:19.312Z,1.43
2023-01-23T17:08:19.088Z,1.43
2023-01-23T17:11:16.060Z,1.42
2023-01-23T17:14:14.148Z,1.38
2023-01-23T17:17:10.101Z,1.38
2023-01-23T17:20:00.523Z,1.41
2023-01-23T17:22:53.372Z,1.46
2023-01-23T17:25:59.079Z,1.48
2023-01-23T17:28:49.227Z,1.50
2023-01-23T17:31:43.261Z,1.50
2023-01-23T17:34:48.682Z,1.49
2023-01-23T17:37:39.307Z,1.45
2023-01-23T17:40:28.681Z,1.41
2023-01-23T17:43:20.817Z,1.43
2023-01-23T17:46:17.037Z,1.46
2023-01-23T17:49:28.484Z,1.49
2023-01-23T17:52:17.464Z,1.49
2023-01-23T17:55:14.748Z,1.46
2023-01-23T17:58:04.798Z,1.44
2023-01-23T18:00:55.551Z,1.43
2023-01-23T18:03:45.412Z,1.43
2023-01-23T18:06:40.790Z,1.46
2023-01-23T18:09:29.885Z,1.51
2023-01-23T18:12:29.772Z,1.54
2023-01-23T18:15:28.683Z,1.55
2023-01-23T18:18:22.252Z,1.55
2023-01-23T18:21:26.877Z,1.52
2023-01-23T18:24:22.950Z,1.51
2023-01-23T18:27:23.464Z,1.52
2023-01-23T18:30:29.791Z,1.53
2023-01-23T18:33:22.699Z,1.52
2023-01-23T18:36:27.609Z,1.51
2023-01-23T18:39:50.960Z,1.54
2023-01-23T18:42:51.175Z,1.55
2023-01-23T18:45:41.943Z,1.53
2023-01-23T18:48:35.488Z,1.51
2023-01-23T18:51:38.592Z,1.50
2023-01-23T18:54:37.281Z,1.53
2023-01-23T18:57:41.655Z,1.59
2023-01-23T19:00:40.592Z,1.63
2023-01-23T19:03:37.366Z,1.63
2023-01-23T19:06:34.505Z,1.58
2023-01-23T19:09:20.491Z,1.54
2023-01-23T19:13:08.244Z,1.49
2023-01-23T19:15:40.826Z,1.47
2023-01-23T19:18:45.918Z,1.50
2023-01-23T19:21:36.295Z,1.51
2023-01-23T19:24:28.416Z,1.52
2023-01-23T19:27:23.793Z,1.51
2023-01-23T19:30:15.048Z,1.52
2023-01-23T19:33:06.704Z,1.51
2023-01-23T19:35:57.400Z,1.51
2023-01-23T19:38:46.554Z,1.52
2023-01-23T19:41:42.687Z,1.50
2023-01-23T19:44:33.562Z,1.49
2023-01-23T19:47:32.650Z,1.50
2023-01-23T19:50:22.404Z,1.50
2023-01-23T19:53:30.616Z,1.51
2023-01-23T19:56:20.366Z,1.53
2023-01-23T19:59:24.595Z,1.58
2023-01-23T20:02:23.361Z,1.57
2023-01-23T20:05:18.041Z,1.57
2023-01-23T20:08:12.092Z,1.58
2023-01-23T20:11:09.317Z,1.59
2023-01-23T20:13:58.900Z,1.55
2023-01-23T20:19:57.487Z,1.44
2023-01-23T20:23:25.116Z,1.41
2023-01-23T20:26:28.800Z,1.39
2023-01-23T20:29:31.590Z,1.39
2023-01-23T20:32:24.252Z,1.41
2023-01-23T20:35:23.295Z,1.44
2023-01-23T20:38:15.592Z,1.45
2023-01-23T20:41:13.438Z,1.44
2023-01-23T20:44:16.279Z,1.44
2023-01-23T20:47:06.541Z,1.42
2023-01-23T20:49:57.206Z,1.40
2023-01-23T20:53:04.453Z,1.36
2023-01-23T20:55:57.285Z,1.32
2023-01-23T20:59:07.151Z,1.30
2023-01-23T21:02:14.337Z,1.28
2023-01-23T21:05:04.434Z,1.29
2023-01-23T21:07:53.682Z,1.28
2023-01-23T21:10:42.863Z,1.30
2023-01-23T21:13:33.296Z,1.33
2023-01-23T21:16:23.619Z,1.32
2023-01-23T21:19:24.843Z,1.31
2023-01-23T21:22:23.596Z,1.28
2023-01-23T21:25:07.370Z,1.24
2023-01-23T21:27:57.965Z,1.21
2023-01-23T21:30:52.705Z,1.20
2023-01-23T21:33:43.626Z,1.19
2023-01-23T21:36:34.449Z,1.18
2023-01-23T21:39:23.500Z,1.19
2023-01-23T21:42:13.333Z,1.20
2023-01-23T21:45:03.144Z,1.22
2023-01-23T21:47:53.984Z,1.21
2023-01-23T21:50:43.411Z,1.18
2023-01-23T21:53:32.026Z,1.15
2023-01-23T21:56:25.823Z,1.11
2023-01-23T21:59:37.312Z,1.08
2023-01-23T22:02:29.789Z,1.06
2023-01-23T22:05:22.713Z,1.07
2023-01-23T22:08:12.288Z,1.08
2023-01-23T22:11:00.235Z,1.09
2023-01-23T22:13:54.350Z,1.13
2023-01-23T22:16:51.373Z,1.18
2023-01-23T22:19:55.004Z,1.21
2023-01-23T22:22:44.488Z,1.23
2023-01-23T22:25:34.235Z,1.23
2023-01-23T22:28:22.087Z,1.23
2023-01-23T22:31:13.761Z,1.20
2023-01-23T22:34:07.218Z,1.16
2023-01-23T22:36:55.620Z,1.14
2023-01-23T22:39:44.676Z,1.13
2023-01-23T22:42:34.437Z,1.13
2023-01-23T22:45:25.767Z,1.13
2023-01-23T22:48:15.234Z,1.15
2023-01-23T22:51:06.852Z,1.15
2023-01-23T22:53:58.473Z,1.17
2023-01-23T22:56:54.621Z,1.20
2023-01-23T22:59:42.533Z,1.20
2023-01-23T23:02:32.356Z,1.19
2023-01-23T23:05:27.885Z,1.18
2023-01-23T23:08:16.884Z,1.15
2023-01-23T23:11:10.527Z,1.14
2023-01-23T23:13:51.260Z,1.14
2023-01-23T23:16:40.762Z,1.17
2023-01-23T23:19:31.447Z,1.19
2023-01-23T23:22:21.246Z,1.24
2023-01-23T23:25:11.914Z,1.28
2023-01-23T23:28:01.683Z,1.29
2023-01-23T23:30:53.300Z,1.29
2023-01-23T23:33:42.653Z,1.26
2023-01-23T23:36:36.824Z,1.24
2023-01-23T23:39:26.138Z,1.22
2023-01-23T23:42:15.831Z,1.25
2023-01-23T23:45:11.278Z,1.30
2023-01-23T23:48:01.625Z,1.33
2023-01-23T23:50:52.028Z,1.38
2023-01-23T23:53:42.930Z,1.44
2023-01-23T23:56:34.971Z,1.44
2023-01-23T23:59:24.459Z,1.46
